sensor_id;sensor_type;location;lat;lon;timestamp;temperature;humidity
2647;DHT22;1333;50.958;6.770;2023-08-21T00:01:09;20.80;99.90
2647;DHT22;1333;50.958;6.770;2023-08-21T00:03:34;20.70;99.90
2647;DHT22;1333;50.958;6.770;2023-08-21T00:06:00;20.70;99.90
2647;DHT22;1333;50.958;6.770;2023-08-21T00:08:25;20.70;99.90
2647;DHT22;1333;50.958;6.770;2023-08-21T00:10:51;20.70;99.90
2647;DHT22;1333;50.958;6.770;2023-08-21T00:13:16;20.70;99.90
2647;DHT22;1333;50.958;6.770;2023-08-21T00:15:41;20.60;99.90
2647;DHT22;1333;50.958;6.770;2023-08-21T00:18:07;20.60;99.90
2647;DHT22;1333;50.958;6.770;2023-08-21T00:20:33;20.60;99.90
2647;DHT22;1333;50.958;6.770;2023-08-21T00:22:58;20.60;99.90
2647;DHT22;1333;50.958;6.770;2023-08-21T00:25:24;20.60;99.90
2647;DHT22;1333;50.958;6.770;2023-08-21T00:27:50;20.50;99.90
2647;DHT22;1333;50.958;6.770;2023-08-21T00:30:16;20.50;99.90
2647;DHT22;1333;50.958;6.770;2023-08-21T00:32:41;20.50;99.90
2647;DHT22;1333;50.958;6.770;2023-08-21T00:35:07;20.50;99.90
2647;DHT22;1333;50.958;6.770;2023-08-21T00:37:33;20.50;99.90
2647;DHT22;1333;50.958;6.770;2023-08-21T00:39:58;20.40;99.90
2647;DHT22;1333;50.958;6.770;2023-08-21T00:42:24;20.40;99.90
2647;DHT22;1333;50.958;6.770;2023-08-21T00:44:49;20.40;99.90
2647;DHT22;1333;50.958;6.770;2023-08-21T00:47:15;20.40;99.90
2647;DHT22;1333;50.958;6.770;2023-08-21T00:49:40;20.40;99.90
2647;DHT22;1333;50.958;6.770;2023-08-21T00:52:08;20.30;99.90
2647;DHT22;1333;50.958;6.770;2023-08-21T00:54:36;20.30;99.90
2647;DHT22;1333;50.958;6.770;2023-08-21T00:57:01;20.30;99.90
2647;DHT22;1333;50.958;6.770;2023-08-21T00:59:28;20.30;99.90
2647;DHT22;1333;50.958;6.770;2023-08-21T01:01:54;20.30;99.90
2647;DHT22;1333;50.958;6.770;2023-08-21T01:04:19;20.30;99.90
2647;DHT22;1333;50.958;6.770;2023-08-21T01:06:47;20.30;99.90
2647;DHT22;1333;50.958;6.770;2023-08-21T01:09:31;20.30;99.90
2647;DHT22;1333;50.958;6.770;2023-08-21T01:12:35;20.30;99.90
2647;DHT22;1333;50.958;6.770;2023-08-21T01:15:03;20.30;99.90
2647;DHT22;1333;50.958;6.770;2023-08-21T01:17:30;20.30;99.90
2647;DHT22;1333;50.958;6.770;2023-08-21T01:19:56;20.30;99.90
2647;DHT22;1333;50.958;6.770;2023-08-21T01:22:26;20.20;99.90
2647;DHT22;1333;50.958;6.770;2023-08-21T01:24:53;20.20;99.90
2647;DHT22;1333;50.958;6.770;2023-08-21T01:27:19;20.20;99.90
2647;DHT22;1333;50.958;6.770;2023-08-21T01:29:46;20.20;99.90
2647;DHT22;1333;50.958;6.770;2023-08-21T01:34:44;20.10;99.90
2647;DHT22;1333;50.958;6.770;2023-08-21T01:37:10;20.10;99.90
2647;DHT22;1333;50.958;6.770;2023-08-21T01:39:36;20.10;99.90
2647;DHT22;1333;50.958;6.770;2023-08-21T01:42:02;20.00;99.90
2647;DHT22;1333;50.958;6.770;2023-08-21T01:44:27;20.00;99.90
2647;DHT22;1333;50.958;6.770;2023-08-21T01:46:53;20.00;99.90
2647;DHT22;1333;50.958;6.770;2023-08-21T01:49:19;20.00;99.90
2647;DHT22;1333;50.958;6.770;2023-08-21T01:51:45;20.00;99.90
2647;DHT22;1333;50.958;6.770;2023-08-21T01:54:11;20.00;99.90
2647;DHT22;1333;50.958;6.770;2023-08-21T01:56:36;19.90;99.90
2647;DHT22;1333;50.958;6.770;2023-08-21T01:59:03;19.90;99.90
2647;DHT22;1333;50.958;6.770;2023-08-21T02:01:29;19.90;99.90
2647;DHT22;1333;50.958;6.770;2023-08-21T02:03:54;19.90;99.90
2647;DHT22;1333;50.958;6.770;2023-08-21T02:06:20;19.90;99.90
2647;DHT22;1333;50.958;6.770;2023-08-21T02:08:45;19.90;99.90
2647;DHT22;1333;50.958;6.770;2023-08-21T02:11:11;19.80;99.90
2647;DHT22;1333;50.958;6.770;2023-08-21T02:13:37;19.80;99.90
2647;DHT22;1333;50.958;6.770;2023-08-21T02:16:02;19.80;99.90
2647;DHT22;1333;50.958;6.770;2023-08-21T02:18:28;19.80;99.90
2647;DHT22;1333;50.958;6.770;2023-08-21T02:20:54;19.80;99.90
2647;DHT22;1333;50.958;6.770;2023-08-21T02:23:20;19.80;99.90
2647;DHT22;1333;50.958;6.770;2023-08-21T02:25:45;19.80;99.90
2647;DHT22;1333;50.958;6.770;2023-08-21T02:28:11;19.80;99.90
2647;DHT22;1333;50.958;6.770;2023-08-21T02:30:40;19.70;99.90
2647;DHT22;1333;50.958;6.770;2023-08-21T02:33:06;19.70;99.90
2647;DHT22;1333;50.958;6.770;2023-08-21T02:35:31;19.70;99.90
2647;DHT22;1333;50.958;6.770;2023-08-21T02:37:57;19.70;99.90
2647;DHT22;1333;50.958;6.770;2023-08-21T02:40:22;19.70;99.90
2647;DHT22;1333;50.958;6.770;2023-08-21T02:42:48;19.70;99.90
2647;DHT22;1333;50.958;6.770;2023-08-21T02:45:13;19.70;99.90
2647;DHT22;1333;50.958;6.770;2023-08-21T02:47:40;19.70;99.90
2647;DHT22;1333;50.958;6.770;2023-08-21T02:50:06;19.70;99.90
2647;DHT22;1333;50.958;6.770;2023-08-21T02:52:33;19.70;99.90
2647;DHT22;1333;50.958;6.770;2023-08-21T02:54:59;19.70;99.90
2647;DHT22;1333;50.958;6.770;2023-08-21T02:57:26;19.70;99.90
2647;DHT22;1333;50.958;6.770;2023-08-21T02:59:51;19.70;99.90
2647;DHT22;1333;50.958;6.770;2023-08-21T03:02:18;19.70;99.90
2647;DHT22;1333;50.958;6.770;2023-08-21T03:04:43;19.70;99.90
2647;DHT22;1333;50.958;6.770;2023-08-21T03:07:09;19.80;99.90
2647;DHT22;1333;50.958;6.770;2023-08-21T03:09:36;19.80;99.90
2647;DHT22;1333;50.958;6.770;2023-08-21T03:12:02;19.90;99.90
2647;DHT22;1333;50.958;6.770;2023-08-21T03:14:27;19.90;99.90
2647;DHT22;1333;50.958;6.770;2023-08-21T03:16:53;19.90;99.90
2647;DHT22;1333;50.958;6.770;2023-08-21T03:19:18;19.90;99.90
2647;DHT22;1333;50.958;6.770;2023-08-21T03:21:44;19.90;99.90
2647;DHT22;1333;50.958;6.770;2023-08-21T03:24:09;19.90;99.90
2647;DHT22;1333;50.958;6.770;2023-08-21T03:26:35;19.80;99.90
2647;DHT22;1333;50.958;6.770;2023-08-21T03:29:01;19.80;99.90
2647;DHT22;1333;50.958;6.770;2023-08-21T03:31:26;19.80;99.90
2647;DHT22;1333;50.958;6.770;2023-08-21T03:33:52;19.80;99.90
2647;DHT22;1333;50.958;6.770;2023-08-21T03:36:18;19.80;99.90
2647;DHT22;1333;50.958;6.770;2023-08-21T03:38:44;19.90;99.90
2647;DHT22;1333;50.958;6.770;2023-08-21T03:41:11;19.90;99.90
2647;DHT22;1333;50.958;6.770;2023-08-21T03:43:36;19.90;99.90
2647;DHT22;1333;50.958;6.770;2023-08-21T03:46:02;20.00;99.90
2647;DHT22;1333;50.958;6.770;2023-08-21T03:48:28;20.00;99.90
2647;DHT22;1333;50.958;6.770;2023-08-21T03:50:53;20.00;99.90
2647;DHT22;1333;50.958;6.770;2023-08-21T03:53:19;20.10;99.90
2647;DHT22;1333;50.958;6.770;2023-08-21T03:55:44;20.10;99.90
2647;DHT22;1333;50.958;6.770;2023-08-21T03:58:10;20.10;99.90
2647;DHT22;1333;50.958;6.770;2023-08-21T04:00:36;20.10;99.90
2647;DHT22;1333;50.958;6.770;2023-08-21T04:03:02;20.00;99.90
2647;DHT22;1333;50.958;6.770;2023-08-21T04:05:27;20.00;99.90
2647;DHT22;1333;50.958;6.770;2023-08-21T04:07:53;19.90;99.90
2647;DHT22;1333;50.958;6.770;2023-08-21T04:10:18;19.90;99.90
2647;DHT22;1333;50.958;6.770;2023-08-21T04:12:44;19.90;99.90
2647;DHT22;1333;50.958;6.770;2023-08-21T04:15:09;19.80;99.90
2647;DHT22;1333;50.958;6.770;2023-08-21T04:17:35;19.80;99.90
2647;DHT22;1333;50.958;6.770;2023-08-21T04:20:00;19.70;99.90
2647;DHT22;1333;50.958;6.770;2023-08-21T04:22:26;19.70;99.90
2647;DHT22;1333;50.958;6.770;2023-08-21T04:24:52;19.70;99.90
2647;DHT22;1333;50.958;6.770;2023-08-21T04:27:17;19.70;99.90
2647;DHT22;1333;50.958;6.770;2023-08-21T04:29:43;19.70;99.90
2647;DHT22;1333;50.958;6.770;2023-08-21T04:32:08;19.70;99.90
2647;DHT22;1333;50.958;6.770;2023-08-21T04:34:34;19.70;99.90
2647;DHT22;1333;50.958;6.770;2023-08-21T04:36:59;19.70;99.90
2647;DHT22;1333;50.958;6.770;2023-08-21T04:39:25;19.70;99.90
2647;DHT22;1333;50.958;6.770;2023-08-21T04:41:51;19.70;99.90
2647;DHT22;1333;50.958;6.770;2023-08-21T04:44:17;19.80;99.90
2647;DHT22;1333;50.958;6.770;2023-08-21T04:46:43;19.90;99.90
2647;DHT22;1333;50.958;6.770;2023-08-21T04:49:09;19.90;99.90
2647;DHT22;1333;50.958;6.770;2023-08-21T04:51:34;19.90;99.90
2647;DHT22;1333;50.958;6.770;2023-08-21T04:54:00;19.90;99.90
2647;DHT22;1333;50.958;6.770;2023-08-21T04:56:26;20.00;99.90
2647;DHT22;1333;50.958;6.770;2023-08-21T04:58:52;20.00;99.90
2647;DHT22;1333;50.958;6.770;2023-08-21T05:01:17;20.00;99.90
2647;DHT22;1333;50.958;6.770;2023-08-21T05:03:43;20.00;99.90
2647;DHT22;1333;50.958;6.770;2023-08-21T05:06:09;20.10;99.90
2647;DHT22;1333;50.958;6.770;2023-08-21T05:08:34;20.10;99.90
2647;DHT22;1333;50.958;6.770;2023-08-21T05:11:01;20.10;99.90
2647;DHT22;1333;50.958;6.770;2023-08-21T05:13:27;20.20;99.90
2647;DHT22;1333;50.958;6.770;2023-08-21T05:15:56;20.20;99.90
2647;DHT22;1333;50.958;6.770;2023-08-21T05:18:23;20.30;99.90
2647;DHT22;1333;50.958;6.770;2023-08-21T05:20:50;20.30;99.90
2647;DHT22;1333;50.958;6.770;2023-08-21T05:23:16;20.40;99.90
2647;DHT22;1333;50.958;6.770;2023-08-21T05:25:43;20.50;99.90
2647;DHT22;1333;50.958;6.770;2023-08-21T05:28:08;20.60;99.90
2647;DHT22;1333;50.958;6.770;2023-08-21T05:30:35;20.70;99.90
2647;DHT22;1333;50.958;6.770;2023-08-21T05:33:01;20.70;99.90
2647;DHT22;1333;50.958;6.770;2023-08-21T05:35:27;20.80;99.90
2647;DHT22;1333;50.958;6.770;2023-08-21T05:37:52;20.90;99.90
2647;DHT22;1333;50.958;6.770;2023-08-21T05:40:18;21.00;99.90
2647;DHT22;1333;50.958;6.770;2023-08-21T05:42:44;21.10;99.90
2647;DHT22;1333;50.958;6.770;2023-08-21T05:45:10;21.30;99.90
2647;DHT22;1333;50.958;6.770;2023-08-21T05:47:36;21.40;99.90
2647;DHT22;1333;50.958;6.770;2023-08-21T05:50:01;21.70;99.90
2647;DHT22;1333;50.958;6.770;2023-08-21T05:52:27;21.90;99.90
2647;DHT22;1333;50.958;6.770;2023-08-21T05:54:52;22.10;99.90
2647;DHT22;1333;50.958;6.770;2023-08-21T05:57:18;22.40;99.90
2647;DHT22;1333;50.958;6.770;2023-08-21T05:59:45;22.50;99.90
2647;DHT22;1333;50.958;6.770;2023-08-21T06:02:11;22.50;99.90
2647;DHT22;1333;50.958;6.770;2023-08-21T06:04:39;22.60;99.90
2647;DHT22;1333;50.958;6.770;2023-08-21T06:07:04;22.60;99.90
2647;DHT22;1333;50.958;6.770;2023-08-21T06:09:30;22.70;99.90
2647;DHT22;1333;50.958;6.770;2023-08-21T06:11:57;22.70;99.90
2647;DHT22;1333;50.958;6.770;2023-08-21T06:14:22;22.80;99.90
2647;DHT22;1333;50.958;6.770;2023-08-21T06:16:57;23.40;99.90
2647;DHT22;1333;50.958;6.770;2023-08-21T06:19:23;24.00;99.90
2647;DHT22;1333;50.958;6.770;2023-08-21T06:21:48;24.30;99.90
2647;DHT22;1333;50.958;6.770;2023-08-21T06:24:14;24.80;99.90
2647;DHT22;1333;50.958;6.770;2023-08-21T06:26:40;25.50;99.90
2647;DHT22;1333;50.958;6.770;2023-08-21T06:29:05;26.20;99.90
2647;DHT22;1333;50.958;6.770;2023-08-21T06:31:31;27.00;99.90
2647;DHT22;1333;50.958;6.770;2023-08-21T06:33:56;27.80;99.90
2647;DHT22;1333;50.958;6.770;2023-08-21T06:36:22;28.90;99.90
2647;DHT22;1333;50.958;6.770;2023-08-21T06:38:48;29.90;99.90
2647;DHT22;1333;50.958;6.770;2023-08-21T06:41:13;31.00;99.90
2647;DHT22;1333;50.958;6.770;2023-08-21T06:43:39;32.10;99.90
2647;DHT22;1333;50.958;6.770;2023-08-21T06:46:04;32.70;95.10
2647;DHT22;1333;50.958;6.770;2023-08-21T06:48:30;33.60;92.30
2647;DHT22;1333;50.958;6.770;2023-08-21T06:50:56;34.40;84.40
2647;DHT22;1333;50.958;6.770;2023-08-21T06:53:22;35.10;73.90
2647;DHT22;1333;50.958;6.770;2023-08-21T06:55:47;35.80;69.60
2647;DHT22;1333;50.958;6.770;2023-08-21T06:58:13;36.10;62.70
2647;DHT22;1333;50.958;6.770;2023-08-21T07:00:39;36.00;59.40
2647;DHT22;1333;50.958;6.770;2023-08-21T07:03:04;35.80;59.10
2647;DHT22;1333;50.958;6.770;2023-08-21T07:05:33;35.70;58.00
2647;DHT22;1333;50.958;6.770;2023-08-21T07:07:58;36.10;58.00
2647;DHT22;1333;50.958;6.770;2023-08-21T07:10:24;36.60;55.20
2647;DHT22;1333;50.958;6.770;2023-08-21T07:12:50;37.40;54.20
2647;DHT22;1333;50.958;6.770;2023-08-21T07:15:16;38.20;54.00
2647;DHT22;1333;50.958;6.770;2023-08-21T07:17:41;38.70;50.40
2647;DHT22;1333;50.958;6.770;2023-08-21T07:20:07;39.60;50.40
2647;DHT22;1333;50.958;6.770;2023-08-21T07:22:33;40.50;48.90
2647;DHT22;1333;50.958;6.770;2023-08-21T07:24:58;41.20;46.90
2647;DHT22;1333;50.958;6.770;2023-08-21T07:27:26;41.80;44.60
2647;DHT22;1333;50.958;6.770;2023-08-21T07:29:51;41.00;40.80
2647;DHT22;1333;50.958;6.770;2023-08-21T07:32:17;40.50;43.20
2647;DHT22;1333;50.958;6.770;2023-08-21T07:34:42;39.80;43.40
2647;DHT22;1333;50.958;6.770;2023-08-21T07:37:08;38.80;44.70
2647;DHT22;1333;50.958;6.770;2023-08-21T07:39:34;38.00;45.90
2647;DHT22;1333;50.958;6.770;2023-08-21T07:42:00;37.90;47.30
2647;DHT22;1333;50.958;6.770;2023-08-21T07:44:26;38.30;47.90
2647;DHT22;1333;50.958;6.770;2023-08-21T07:46:52;38.60;47.90
2647;DHT22;1333;50.958;6.770;2023-08-21T07:49:17;39.00;47.30
2647;DHT22;1333;50.958;6.770;2023-08-21T07:51:43;39.80;47.00
2647;DHT22;1333;50.958;6.770;2023-08-21T07:54:08;40.20;45.50
2647;DHT22;1333;50.958;6.770;2023-08-21T07:56:34;40.00;44.90
2647;DHT22;1333;50.958;6.770;2023-08-21T07:59:02;39.30;44.90
2647;DHT22;1333;50.958;6.770;2023-08-21T08:01:27;39.10;45.50
2647;DHT22;1333;50.958;6.770;2023-08-21T08:03:53;39.00;45.50
2647;DHT22;1333;50.958;6.770;2023-08-21T08:06:18;38.60;45.20
2647;DHT22;1333;50.958;6.770;2023-08-21T08:08:44;37.50;45.50
2647;DHT22;1333;50.958;6.770;2023-08-21T08:11:09;36.60;46.20
2647;DHT22;1333;50.958;6.770;2023-08-21T08:13:35;36.00;47.70
2647;DHT22;1333;50.958;6.770;2023-08-21T08:16:00;35.50;48.70
2647;DHT22;1333;50.958;6.770;2023-08-21T08:18:26;35.00;50.10
2647;DHT22;1333;50.958;6.770;2023-08-21T08:20:52;35.10;51.20
2647;DHT22;1333;50.958;6.770;2023-08-21T08:23:19;35.30;51.60
2647;DHT22;1333;50.958;6.770;2023-08-21T08:25:45;35.40;51.80
2647;DHT22;1333;50.958;6.770;2023-08-21T08:28:10;35.60;52.20
2647;DHT22;1333;50.958;6.770;2023-08-21T08:30:36;36.70;51.70
2647;DHT22;1333;50.958;6.770;2023-08-21T08:33:01;38.60;49.50
2647;DHT22;1333;50.958;6.770;2023-08-21T08:35:27;40.30;46.00
2647;DHT22;1333;50.958;6.770;2023-08-21T08:37:52;42.10;43.70
2647;DHT22;1333;50.958;6.770;2023-08-21T08:40:18;44.00;42.20
2647;DHT22;1333;50.958;6.770;2023-08-21T08:42:44;45.20;37.50
2647;DHT22;1333;50.958;6.770;2023-08-21T08:45:12;46.60;37.90
2647;DHT22;1333;50.958;6.770;2023-08-21T08:47:40;48.10;35.90
2647;DHT22;1333;50.958;6.770;2023-08-21T08:50:07;49.10;33.90
2647;DHT22;1333;50.958;6.770;2023-08-21T08:52:38;49.90;32.70
2647;DHT22;1333;50.958;6.770;2023-08-21T08:55:04;50.60;31.30
2647;DHT22;1333;50.958;6.770;2023-08-21T08:57:32;51.00;29.20
2647;DHT22;1333;50.958;6.770;2023-08-21T08:59:57;51.50;29.20
2647;DHT22;1333;50.958;6.770;2023-08-21T09:02:25;52.10;28.90
2647;DHT22;1333;50.958;6.770;2023-08-21T09:04:51;52.40;28.40
2647;DHT22;1333;50.958;6.770;2023-08-21T09:07:18;52.70;27.50
2647;DHT22;1333;50.958;6.770;2023-08-21T09:09:46;53.20;27.80
2647;DHT22;1333;50.958;6.770;2023-08-21T09:12:15;53.60;27.80
2647;DHT22;1333;50.958;6.770;2023-08-21T09:14:41;54.00;27.30
2647;DHT22;1333;50.958;6.770;2023-08-21T09:17:07;54.40;27.10
2647;DHT22;1333;50.958;6.770;2023-08-21T09:19:33;54.80;26.70
2647;DHT22;1333;50.958;6.770;2023-08-21T09:22:06;55.20;26.60
2647;DHT22;1333;50.958;6.770;2023-08-21T09:24:32;55.60;26.10
2647;DHT22;1333;50.958;6.770;2023-08-21T09:26:58;55.80;25.80
2647;DHT22;1333;50.958;6.770;2023-08-21T09:29:25;56.10;25.30
2647;DHT22;1333;50.958;6.770;2023-08-21T09:31:51;56.20;24.80
2647;DHT22;1333;50.958;6.770;2023-08-21T09:34:21;56.40;24.80
2647;DHT22;1333;50.958;6.770;2023-08-21T09:36:54;56.60;25.00
2647;DHT22;1333;50.958;6.770;2023-08-21T09:39:19;56.80;24.80
2647;DHT22;1333;50.958;6.770;2023-08-21T09:41:55;56.70;23.40
2647;DHT22;1333;50.958;6.770;2023-08-21T09:44:21;56.30;22.60
2647;DHT22;1333;50.958;6.770;2023-08-21T09:46:48;56.10;23.80
2647;DHT22;1333;50.958;6.770;2023-08-21T09:49:15;55.80;23.60
2647;DHT22;1333;50.958;6.770;2023-08-21T09:51:42;55.50;23.60
2647;DHT22;1333;50.958;6.770;2023-08-21T09:54:11;55.40;23.20
2647;DHT22;1333;50.958;6.770;2023-08-21T09:56:37;55.30;23.50
2647;DHT22;1333;50.958;6.770;2023-08-21T09:59:03;55.40;23.90
2647;DHT22;1333;50.958;6.770;2023-08-21T10:01:31;55.10;22.90
2647;DHT22;1333;50.958;6.770;2023-08-21T10:04:02;55.20;23.90
2647;DHT22;1333;50.958;6.770;2023-08-21T10:06:28;55.40;23.60
2647;DHT22;1333;50.958;6.770;2023-08-21T10:08:56;55.50;23.10
2647;DHT22;1333;50.958;6.770;2023-08-21T10:11:22;55.30;22.90
2647;DHT22;1333;50.958;6.770;2023-08-21T10:13:49;55.50;23.90
2647;DHT22;1333;50.958;6.770;2023-08-21T10:16:18;55.40;23.20
2647;DHT22;1333;50.958;6.770;2023-08-21T10:18:44;55.50;23.30
2647;DHT22;1333;50.958;6.770;2023-08-21T10:21:13;55.60;23.40
2647;DHT22;1333;50.958;6.770;2023-08-21T10:23:39;55.80;23.30
2647;DHT22;1333;50.958;6.770;2023-08-21T10:26:07;56.00;23.30
2647;DHT22;1333;50.958;6.770;2023-08-21T10:28:53;56.30;23.10
2647;DHT22;1333;50.958;6.770;2023-08-21T10:31:29;56.60;23.40
2647;DHT22;1333;50.958;6.770;2023-08-21T10:33:55;56.70;23.00
2647;DHT22;1333;50.958;6.770;2023-08-21T10:39:18;56.50;22.20
2647;DHT22;1333;50.958;6.770;2023-08-21T10:41:57;56.60;22.50
2647;DHT22;1333;50.958;6.770;2023-08-21T10:47:20;56.80;21.90
2647;DHT22;1333;50.958;6.770;2023-08-21T10:49:51;56.80;22.30
2647;DHT22;1333;50.958;6.770;2023-08-21T10:52:24;56.80;22.80
2647;DHT22;1333;50.958;6.770;2023-08-21T10:54:53;56.70;22.30
2647;DHT22;1333;50.958;6.770;2023-08-21T10:57:19;56.60;21.80
2647;DHT22;1333;50.958;6.770;2023-08-21T10:59:58;56.40;21.70
2647;DHT22;1333;50.958;6.770;2023-08-21T11:02:28;56.50;22.50
2647;DHT22;1333;50.958;6.770;2023-08-21T11:04:55;56.60;22.20
2647;DHT22;1333;50.958;6.770;2023-08-21T11:07:20;56.30;22.20
2647;DHT22;1333;50.958;6.770;2023-08-21T11:09:47;56.00;22.10
2647;DHT22;1333;50.958;6.770;2023-08-21T11:12:15;56.30;22.80
2647;DHT22;1333;50.958;6.770;2023-08-21T11:14:41;56.40;22.90
2647;DHT22;1333;50.958;6.770;2023-08-21T11:17:08;56.00;21.20
2647;DHT22;1333;50.958;6.770;2023-08-21T11:19:35;56.10;22.40
2647;DHT22;1333;50.958;6.770;2023-08-21T11:22:01;56.50;22.50
2647;DHT22;1333;50.958;6.770;2023-08-21T11:24:51;56.30;22.10
2647;DHT22;1333;50.958;6.770;2023-08-21T11:27:18;55.90;22.60
2647;DHT22;1333;50.958;6.770;2023-08-21T11:29:49;55.00;22.10
2647;DHT22;1333;50.958;6.770;2023-08-21T11:32:19;53.50;22.60
2647;DHT22;1333;50.958;6.770;2023-08-21T11:34:50;51.30;23.00
2647;DHT22;1333;50.958;6.770;2023-08-21T11:37:20;49.20;24.20
2647;DHT22;1333;50.958;6.770;2023-08-21T11:39:48;47.00;25.40
2647;DHT22;1333;50.958;6.770;2023-08-21T11:42:15;45.60;27.00
2647;DHT22;1333;50.958;6.770;2023-08-21T11:47:10;43.70;28.90
2647;DHT22;1333;50.958;6.770;2023-08-21T11:49:37;44.10;29.20
2647;DHT22;1333;50.958;6.770;2023-08-21T11:52:04;45.30;29.20
2647;DHT22;1333;50.958;6.770;2023-08-21T11:54:34;45.20;28.00
2647;DHT22;1333;50.958;6.770;2023-08-21T11:57:21;45.40;28.20
2647;DHT22;1333;50.958;6.770;2023-08-21T11:59:54;46.30;28.30
2647;DHT22;1333;50.958;6.770;2023-08-21T12:02:27;47.70;27.40
2647;DHT22;1333;50.958;6.770;2023-08-21T12:04:54;47.60;26.60
2647;DHT22;1333;50.958;6.770;2023-08-21T12:07:20;47.40;26.60
2647;DHT22;1333;50.958;6.770;2023-08-21T12:09:47;47.00;26.90
2647;DHT22;1333;50.958;6.770;2023-08-21T12:12:14;47.20;27.10
2647;DHT22;1333;50.958;6.770;2023-08-21T12:14:40;48.20;26.50
2647;DHT22;1333;50.958;6.770;2023-08-21T12:17:05;48.80;26.10
2647;DHT22;1333;50.958;6.770;2023-08-21T12:19:31;49.90;25.60
2647;DHT22;1333;50.958;6.770;2023-08-21T12:21:56;50.70;25.10
2647;DHT22;1333;50.958;6.770;2023-08-21T12:24:24;51.70;24.90
2647;DHT22;1333;50.958;6.770;2023-08-21T12:26:49;52.70;24.90
2647;DHT22;1333;50.958;6.770;2023-08-21T12:29:15;53.20;24.60
2647;DHT22;1333;50.958;6.770;2023-08-21T12:31:40;53.80;24.20
2647;DHT22;1333;50.958;6.770;2023-08-21T12:34:06;54.40;23.90
2647;DHT22;1333;50.958;6.770;2023-08-21T12:36:34;55.00;23.80
2647;DHT22;1333;50.958;6.770;2023-08-21T12:38:59;55.60;23.40
2647;DHT22;1333;50.958;6.770;2023-08-21T12:41:25;56.00;23.30
2647;DHT22;1333;50.958;6.770;2023-08-21T12:43:50;56.30;22.70
2647;DHT22;1333;50.958;6.770;2023-08-21T12:46:16;56.60;22.30
2647;DHT22;1333;50.958;6.770;2023-08-21T12:48:41;57.00;22.40
2647;DHT22;1333;50.958;6.770;2023-08-21T12:51:07;57.10;22.70
2647;DHT22;1333;50.958;6.770;2023-08-21T12:53:32;57.40;22.10
2647;DHT22;1333;50.958;6.770;2023-08-21T12:55:58;57.50;21.70
2647;DHT22;1333;50.958;6.770;2023-08-21T12:58:25;57.50;21.50
2647;DHT22;1333;50.958;6.770;2023-08-21T13:00:50;57.40;21.70
2647;DHT22;1333;50.958;6.770;2023-08-21T13:03:16;57.40;21.70
2647;DHT22;1333;50.958;6.770;2023-08-21T13:05:41;57.30;21.20
2647;DHT22;1333;50.958;6.770;2023-08-21T13:08:07;57.20;21.60
2647;DHT22;1333;50.958;6.770;2023-08-21T13:10:32;57.10;21.60
2647;DHT22;1333;50.958;6.770;2023-08-21T13:12:58;56.90;21.50
2647;DHT22;1333;50.958;6.770;2023-08-21T13:15:23;56.50;21.70
2647;DHT22;1333;50.958;6.770;2023-08-21T13:17:49;56.40;22.00
2647;DHT22;1333;50.958;6.770;2023-08-21T13:20:14;56.10;21.90
2647;DHT22;1333;50.958;6.770;2023-08-21T13:22:47;55.80;21.60
2647;DHT22;1333;50.958;6.770;2023-08-21T13:25:15;55.60;22.00
2647;DHT22;1333;50.958;6.770;2023-08-21T13:27:41;55.50;22.30
2647;DHT22;1333;50.958;6.770;2023-08-21T13:30:07;55.40;22.00
2647;DHT22;1333;50.958;6.770;2023-08-21T13:32:33;55.30;22.00
2647;DHT22;1333;50.958;6.770;2023-08-21T13:34:59;55.10;22.30
2647;DHT22;1333;50.958;6.770;2023-08-21T13:37:24;54.80;22.10
2647;DHT22;1333;50.958;6.770;2023-08-21T13:39:52;54.80;22.50
2647;DHT22;1333;50.958;6.770;2023-08-21T13:42:17;54.80;22.30
2647;DHT22;1333;50.958;6.770;2023-08-21T13:44:43;54.70;22.30
2647;DHT22;1333;50.958;6.770;2023-08-21T13:47:08;54.50;22.40
2647;DHT22;1333;50.958;6.770;2023-08-21T13:49:34;54.40;22.60
2647;DHT22;1333;50.958;6.770;2023-08-21T13:51:59;54.20;22.40
2647;DHT22;1333;50.958;6.770;2023-08-21T13:54:25;53.90;22.10
2647;DHT22;1333;50.958;6.770;2023-08-21T13:56:50;53.50;22.40
2647;DHT22;1333;50.958;6.770;2023-08-21T13:59:15;53.10;22.50
2647;DHT22;1333;50.958;6.770;2023-08-21T14:01:41;52.80;23.00
2647;DHT22;1333;50.958;6.770;2023-08-21T14:04:06;52.60;23.20
2647;DHT22;1333;50.958;6.770;2023-08-21T14:06:32;52.30;23.50
2647;DHT22;1333;50.958;6.770;2023-08-21T14:08:58;52.20;23.50
2647;DHT22;1333;50.958;6.770;2023-08-21T14:11:24;51.80;23.10
2647;DHT22;1333;50.958;6.770;2023-08-21T14:13:49;51.40;23.30
2647;DHT22;1333;50.958;6.770;2023-08-21T14:16:15;50.70;23.70
2647;DHT22;1333;50.958;6.770;2023-08-21T14:18:41;49.60;24.30
2647;DHT22;1333;50.958;6.770;2023-08-21T14:21:06;48.20;24.70
2647;DHT22;1333;50.958;6.770;2023-08-21T14:23:32;46.90;25.60
2647;DHT22;1333;50.958;6.770;2023-08-21T14:25:58;45.30;26.10
2647;DHT22;1333;50.958;6.770;2023-08-21T14:28:23;43.80;27.10
2647;DHT22;1333;50.958;6.770;2023-08-21T14:30:48;42.50;28.00
2647;DHT22;1333;50.958;6.770;2023-08-21T14:33:17;41.40;28.90
2647;DHT22;1333;50.958;6.770;2023-08-21T14:35:42;40.30;30.00
2647;DHT22;1333;50.958;6.770;2023-08-21T14:38:08;39.40;31.10
2647;DHT22;1333;50.958;6.770;2023-08-21T14:40:33;38.50;31.80
2647;DHT22;1333;50.958;6.770;2023-08-21T14:42:59;37.80;32.90
2647;DHT22;1333;50.958;6.770;2023-08-21T14:45:24;37.10;33.60
2647;DHT22;1333;50.958;6.770;2023-08-21T14:47:50;36.60;35.00
2647;DHT22;1333;50.958;6.770;2023-08-21T14:50:15;36.10;35.80
2647;DHT22;1333;50.958;6.770;2023-08-21T14:52:41;35.60;36.60
2647;DHT22;1333;50.958;6.770;2023-08-21T14:55:06;35.10;37.40
2647;DHT22;1333;50.958;6.770;2023-08-21T14:57:32;34.70;38.00
2647;DHT22;1333;50.958;6.770;2023-08-21T14:59:57;34.40;39.00
2647;DHT22;1333;50.958;6.770;2023-08-21T15:02:23;34.00;39.30
2647;DHT22;1333;50.958;6.770;2023-08-21T15:04:48;33.70;40.20
2647;DHT22;1333;50.958;6.770;2023-08-21T15:07:14;33.50;40.60
2647;DHT22;1333;50.958;6.770;2023-08-21T15:09:39;33.20;41.50
2647;DHT22;1333;50.958;6.770;2023-08-21T15:12:05;33.00;42.10
2647;DHT22;1333;50.958;6.770;2023-08-21T15:14:31;32.80;41.90
2647;DHT22;1333;50.958;6.770;2023-08-21T15:16:56;32.70;42.10
2647;DHT22;1333;50.958;6.770;2023-08-21T15:19:22;32.50;42.80
2647;DHT22;1333;50.958;6.770;2023-08-21T15:21:47;32.40;43.30
2647;DHT22;1333;50.958;6.770;2023-08-21T15:24:13;32.30;43.70
2647;DHT22;1333;50.958;6.770;2023-08-21T15:26:38;32.20;44.00
2647;DHT22;1333;50.958;6.770;2023-08-21T15:29:04;32.00;44.20
2647;DHT22;1333;50.958;6.770;2023-08-21T15:31:30;31.90;44.80
2647;DHT22;1333;50.958;6.770;2023-08-21T15:33:55;31.80;45.00
2647;DHT22;1333;50.958;6.770;2023-08-21T15:36:21;31.70;45.20
2647;DHT22;1333;50.958;6.770;2023-08-21T15:38:46;31.50;45.40
2647;DHT22;1333;50.958;6.770;2023-08-21T15:41:12;31.40;45.90
2647;DHT22;1333;50.958;6.770;2023-08-21T15:43:37;31.20;46.00
2647;DHT22;1333;50.958;6.770;2023-08-21T15:46:03;31.20;46.00
2647;DHT22;1333;50.958;6.770;2023-08-21T15:48:32;31.10;46.20
2647;DHT22;1333;50.958;6.770;2023-08-21T15:50:58;31.00;46.50
2647;DHT22;1333;50.958;6.770;2023-08-21T15:53:24;30.90;46.80
2647;DHT22;1333;50.958;6.770;2023-08-21T15:55:49;30.90;47.10
2647;DHT22;1333;50.958;6.770;2023-08-21T15:58:15;30.80;47.40
2647;DHT22;1333;50.958;6.770;2023-08-21T16:00:41;30.70;47.60
2647;DHT22;1333;50.958;6.770;2023-08-21T16:03:06;30.60;47.80
2647;DHT22;1333;50.958;6.770;2023-08-21T16:05:32;30.50;48.50
2647;DHT22;1333;50.958;6.770;2023-08-21T16:07:58;30.50;48.70